Aviation Digital Data Service (ADDS)

Output produced by METARs form (1846 UTC 28 September 2016)
found at http://aviationweather.gov/adds/metars/
 
KHLG 281810Z 2818/2918 15006KT P6SM BKN040 
     FM290700 07005KT P6SM -SHRA BKN020 
     FM290900 08005KT P6SM -SHRA BKN012 
     FM291200 08005KT P6SM VCSH BKN025